Terminal Aerodrome Forecast
Issued by NWS Pueblo, CO

Home | Current Version | Previous Version | Text Only | Print | Product List | Glossary On
Versions: 1 2 3 4 5 6 7 8 9 10 11 12 13 14 15 16 17
000
FTUS45 KPUB 180103 AAB
TAFPUB
TAF AMD
KPUB 180103Z 1801/1824 25015G25KT P6SM SCT060 BKN150
     FM180300 33028G42KT P6SM SCT040 BKN080
     FM180900 34015G25KT P6SM FEW060 BKN090
     FM181100 36010KT P6SM SCT100
     FM181400 20004KT P6SM SKC
     FM181900 18007KT P6SM SKC=

USA.gov is the U.S. government's official web portal to all federal, state and local government web resources and services.